Terminal Aerodrome Forecast
Issued by NWS

Home | Current Version | Previous Version | Text Only | Print | Product List | Glossary On
Versions: 1 2 3 4 5 6 7 8 9 10 11 12 13 14 15
000
FTUS43 KGRR 010500
TAFJXN
TAF
KJXN 010526Z 0106/0206 VRB05KT P6SM SKC
     FM011900 23005KT P6SM VCTS FEW040CB
     FM020200 VRB05KT P6SM FEW150=

USA.gov is the U.S. government's official web portal to all federal, state and local government web resources and services.